logo
Search for airport 
image banner adimage banner adimage banner ad
image banner ad

LGKY - Kalymnos

Located in , Greece

ICAO - LGKY, IATA - JKL

Data provided by Airmate  

General information

Coordinates: N36°57'48" E26°56'26"
Elevation is 770 feet MSL.
 
View others Airports in Dodecanese

Operational data

Special qualification required
Current time UTC:
Current local time:
Weather at : LGKO - Kos / Ippokratis ( 23 km )
METAR: LGKO 130550Z 36011KT CAVOK 20/14 Q1016
TAF: TAF LGKO 130500Z 1306/1406 32014KT 9999 FEW018
View NOTAMs / SUP AIP / TFR affecting this airport [VIEW]
Communications frequencies: [VIEW]

Runways:

RWY identifierQFULength (ft)Width (ft)SurfaceLDA (ft)
10102°333098UNK
28282°333098UNK

Airport contact information

Address: Greece

Handlers

Skyserv Handling Services

Skyserv Handling Services
[VIEW][VIEW]
+306936093748

Satellite view of LGKY